Ocean Jupiter — CFK3107 — position and weather

sailwx.info

Track history (hours):
 
Tides and Currents Weather Stations Pressure Air Temp Water Temp Dewpoint Dewpoint Depression Visibility Wind Speed Wind Dir Waves Ship Positions

Ocean Jupiter

Last reported at 2016-Sep-27 00:34 UTC. Time now 2016-Sep-27 10:27 UTC.
Position N 46°03' W 073°07'.

Length 24 m; draft 3.2 m.

Type: Tug. MMSI: 316008255.

Date/timePositionNaut miles runAvg speedWind from/ knotsBaromVisibWave heightAir tempDewpointWater temp
2016-Sep-27 00:34N 46°03' W 073°07'15 3.7
2016-Sep-26 20:33N 45°50' W 073°17'0 0.1
2016-Sep-26 19:33N 45°50' W 073°17'15 3.7
2016-Sep-26 15:31N 46°03' W 073°07'0 0.0
2016-Sep-26 13:32N 46°03' W 073°07'0 0.0
2016-Sep-26 11:33N 46°03' W 073°07'0 0.0
2016-Sep-26 08:33N 46°03' W 073°07'0 0.0
2016-Sep-26 02:33N 46°03' W 073°07'0 0.0
2016-Sep-26 01:34N 46°03' W 073°07'0 0.0
2016-Sep-26 00:33N 46°03' W 073°07'0 0.0
2016-Sep-25 21:34N 46°03' W 073°07'0 0.0
2016-Sep-25 17:33N 46°03' W 073°07'0 0.0
2016-Sep-25 16:33N 46°03' W 073°07'0 0.1
2016-Sep-25 15:33N 46°03' W 073°07'0 0.1
2016-Sep-25 14:33N 46°03' W 073°07'0 0.0
2016-Sep-25 12:33N 46°03' W 073°07'0 0.0
2016-Sep-25 11:34N 46°03' W 073°07'0 0.0
2016-Sep-25 10:33N 46°03' W 073°07'0 0.0
2016-Sep-25 09:34N 46°03' W 073°07'0 0.0
2016-Sep-25 07:33N 46°03' W 073°07'0 0.0
2016-Sep-25 04:34N 46°03' W 073°07'0 0.0
2016-Sep-25 00:34N 46°03' W 073°07'0 0.0
2016-Sep-24 22:33N 46°03' W 073°07'0 0.2
2016-Sep-24 21:33N 46°03' W 073°07'0 0.1
2016-Sep-24 19:21N 46°03' W 073°07'0 0.0
2016-Sep-24 18:34N 46°03' W 073°07'0 0.0
2016-Sep-24 17:34N 46°03' W 073°07'0 0.1
2016-Sep-24 16:33N 46°03' W 073°07'0 0.1
2016-Sep-24 14:34N 46°03' W 073°07'0 0.0
2016-Sep-24 12:34N 46°03' W 073°07'0 0.0
2016-Sep-24 10:34N 46°03' W 073°07'0 0.0
2016-Sep-24 09:33N 46°03' W 073°07'0 0.0
2016-Sep-24 03:33N 46°03' W 073°07'0 0.0
2016-Sep-24 02:33N 46°03' W 073°07'0 0.0
2016-Sep-24 01:34N 46°03' W 073°07'0 0.0
2016-Sep-24 00:34N 46°03' W 073°07'0 0.0
2016-Sep-23 19:34N 46°03' W 073°07'0 0.0
2016-Sep-23 17:33N 46°03' W 073°07'0 0.0
2016-Sep-23 16:34N 46°03' W 073°07'0 0.0
2016-Sep-23 15:34N 46°03' W 073°07'0 0.0
2016-Sep-23 13:33N 46°03' W 073°07'0 0.0
2016-Sep-23 09:33N 46°03' W 073°07'0 0.0
2016-Sep-23 06:33N 46°03' W 073°07'0 0.0
2016-Sep-23 04:34N 46°03' W 073°07'0 0.0
2016-Sep-23 03:33N 46°03' W 073°07'8 8.3
2016-Sep-23 02:34N 45°56' W 073°13'6 6.5
2016-Sep-23 01:34N 45°50' W 073°17'1 0.9
2016-Sep-23 00:34N 45°51' W 073°17'6 5.8
2016-Sep-22 23:34N 45°56' W 073°13'8 2.7
2016-Sep-22 20:34N 46°03' W 073°07'0 0.0
2016-Sep-22 12:33N 46°03' W 073°07'0 0.0
2016-Sep-22 04:33N 46°03' W 073°07'0 0.0
2016-Sep-22 03:33N 46°03' W 073°07'0 0.0
2016-Sep-22 00:34N 46°03' W 073°07'0 0.0
2016-Sep-21 23:33N 46°03' W 073°07'0 0.0
2016-Sep-21 22:33N 46°03' W 073°07'0 0.0
2016-Sep-21 19:34N 46°03' W 073°07'1 0.2
2016-Sep-21 16:33N 46°03' W 073°07'1 0.1
2016-Sep-21 09:33N 46°03' W 073°07'0 0.0
2016-Sep-21 08:33N 46°03' W 073°07'0 0.0
2016-Sep-21 05:33N 46°03' W 073°07'0 0.0
2016-Sep-21 03:34N 46°03' W 073°07'0 0.0
2016-Sep-21 02:34N 46°03' W 073°07'0 0.0
2016-Sep-20 17:34N 46°03' W 073°07'0 0.0
2016-Sep-20 14:33N 46°03' W 073°07'0 0.0
2016-Sep-20 13:33N 46°03' W 073°07'3 0.8
2016-Sep-20 10:33N 46°02' W 073°10'13 6.3
2016-Sep-20 08:33N 45°50' W 073°17'1 0.7
2016-Sep-20 07:33N 45°51' W 073°17'8 8.1
2016-Sep-20 06:34N 45°58' W 073°12'6 1.5
2016-Sep-20 02:34N 46°03' W 073°07'0 0.0
2016-Sep-19 23:34N 46°03' W 073°07'1 0.2
2016-Sep-19 19:34N 46°03' W 073°08'1 0.8
2016-Sep-19 18:34N 46°03' W 073°07'0 0.0
2016-Sep-19 16:33N 46°03' W 073°07'0 0.0
2016-Sep-19 14:33N 46°03' W 073°07'0 0.0
2016-Sep-19 13:34N 46°03' W 073°07'0 0.0
2016-Sep-19 12:34N 46°03' W 073°07'0 0.0
2016-Sep-19 11:34N 46°03' W 073°07'0 0.0
2016-Sep-19 09:34N 46°03' W 073°07'0 0.0
2016-Sep-19 07:34N 46°03' W 073°07'0 0.0
2016-Sep-19 06:34N 46°03' W 073°07'0 0.0
2016-Sep-19 03:34N 46°03' W 073°07'0 0.0
2016-Sep-19 02:34N 46°03' W 073°07'0 0.0
2016-Sep-19 00:34N 46°03' W 073°07'0 0.0
2016-Sep-18 19:33N 46°03' W 073°07'0 0.0
2016-Sep-18 15:33N 46°03' W 073°07'0 0.0
2016-Sep-18 14:33N 46°03' W 073°07'0 0.0
2016-Sep-18 10:34N 46°03' W 073°07'0 0.2
2016-Sep-18 09:34N 46°03' W 073°07'0 0.0
2016-Sep-18 02:33N 46°03' W 073°07'0 0.0
2016-Sep-18 01:34N 46°03' W 073°07'0 0.0
2016-Sep-17 22:34N 46°03' W 073°07'0 0.0
2016-Sep-17 21:33N 46°03' W 073°07'0 0.0
2016-Sep-17 20:34N 46°03' W 073°07'0 0.0
2016-Sep-17 19:16N 46°03' W 073°07'0 0.0
2016-Sep-17 13:34N 46°03' W 073°07'0 0.0
2016-Sep-17 12:34N 46°03' W 073°07'0 0.0
2016-Sep-17 10:34N 46°03' W 073°07'0 0.0
2016-Sep-17 09:34N 46°03' W 073°07'0 0.0
2016-Sep-17 08:33N 46°03' W 073°07'0 0.0
2016-Sep-17 07:33N 46°03' W 073°07'0 0.0
2016-Sep-17 05:33N 46°03' W 073°07'0 0.0
2016-Sep-17 04:33N 46°03' W 073°07'  
Track history (hours):
 
Tides and Currents Weather Stations Pressure Air Temp Water Temp Dewpoint Dewpoint Depression Visibility Wind Speed Wind Dir Waves Ship Positions

Ocean Jupiter

Last reported at 2016-Sep-27 00:34 UTC. Time now 2016-Sep-27 10:27 UTC.
Position N 46°03' W 073°07'.

Length 24 m; draft 3.2 m.

Type: Tug. MMSI: 316008255.

Date/timePositionNaut miles runAvg speedWind from/ knotsBaromVisibWave heightAir tempDewpointWater temp
2016-Sep-27 00:34N 46°03' W 073°07'15 3.7
2016-Sep-26 20:33N 45°50' W 073°17'0 0.1
2016-Sep-26 19:33N 45°50' W 073°17'15 3.7
2016-Sep-26 15:31N 46°03' W 073°07'0 0.0
2016-Sep-26 13:32N 46°03' W 073°07'0 0.0
2016-Sep-26 11:33N 46°03' W 073°07'0 0.0
2016-Sep-26 08:33N 46°03' W 073°07'0 0.0
2016-Sep-26 02:33N 46°03' W 073°07'0 0.0
2016-Sep-26 01:34N 46°03' W 073°07'0 0.0
2016-Sep-26 00:33N 46°03' W 073°07'0 0.0
2016-Sep-25 21:34N 46°03' W 073°07'0 0.0
2016-Sep-25 17:33N 46°03' W 073°07'0 0.0
2016-Sep-25 16:33N 46°03' W 073°07'0 0.1
2016-Sep-25 15:33N 46°03' W 073°07'0 0.1
2016-Sep-25 14:33N 46°03' W 073°07'0 0.0
2016-Sep-25 12:33N 46°03' W 073°07'0 0.0
2016-Sep-25 11:34N 46°03' W 073°07'0 0.0
2016-Sep-25 10:33N 46°03' W 073°07'0 0.0
2016-Sep-25 09:34N 46°03' W 073°07'0 0.0
2016-Sep-25 07:33N 46°03' W 073°07'0 0.0
2016-Sep-25 04:34N 46°03' W 073°07'0 0.0
2016-Sep-25 00:34N 46°03' W 073°07'0 0.0
2016-Sep-24 22:33N 46°03' W 073°07'0 0.2
2016-Sep-24 21:33N 46°03' W 073°07'0 0.1
2016-Sep-24 19:21N 46°03' W 073°07'0 0.0
2016-Sep-24 18:34N 46°03' W 073°07'0 0.0
2016-Sep-24 17:34N 46°03' W 073°07'0 0.1
2016-Sep-24 16:33N 46°03' W 073°07'0 0.1
2016-Sep-24 14:34N 46°03' W 073°07'0 0.0
2016-Sep-24 12:34N 46°03' W 073°07'0 0.0
2016-Sep-24 10:34N 46°03' W 073°07'0 0.0
2016-Sep-24 09:33N 46°03' W 073°07'0 0.0
2016-Sep-24 03:33N 46°03' W 073°07'0 0.0
2016-Sep-24 02:33N 46°03' W 073°07'0 0.0
2016-Sep-24 01:34N 46°03' W 073°07'0 0.0
2016-Sep-24 00:34N 46°03' W 073°07'0 0.0
2016-Sep-23 19:34N 46°03' W 073°07'0 0.0
2016-Sep-23 17:33N 46°03' W 073°07'0 0.0
2016-Sep-23 16:34N 46°03' W 073°07'0 0.0
2016-Sep-23 15:34N 46°03' W 073°07'0 0.0
2016-Sep-23 13:33N 46°03' W 073°07'0 0.0
2016-Sep-23 09:33N 46°03' W 073°07'0 0.0
2016-Sep-23 06:33N 46°03' W 073°07'0 0.0
2016-Sep-23 04:34N 46°03' W 073°07'0 0.0
2016-Sep-23 03:33N 46°03' W 073°07'8 8.3
2016-Sep-23 02:34N 45°56' W 073°13'6 6.5
2016-Sep-23 01:34N 45°50' W 073°17'1 0.9
2016-Sep-23 00:34N 45°51' W 073°17'6 5.8
2016-Sep-22 23:34N 45°56' W 073°13'8 2.7
2016-Sep-22 20:34N 46°03' W 073°07'0 0.0
2016-Sep-22 12:33N 46°03' W 073°07'0 0.0
2016-Sep-22 04:33N 46°03' W 073°07'0 0.0
2016-Sep-22 03:33N 46°03' W 073°07'0 0.0
2016-Sep-22 00:34N 46°03' W 073°07'0 0.0
2016-Sep-21 23:33N 46°03' W 073°07'0 0.0
2016-Sep-21 22:33N 46°03' W 073°07'0 0.0
2016-Sep-21 19:34N 46°03' W 073°07'1 0.2
2016-Sep-21 16:33N 46°03' W 073°07'1 0.1
2016-Sep-21 09:33N 46°03' W 073°07'0 0.0
2016-Sep-21 08:33N 46°03' W 073°07'0 0.0
2016-Sep-21 05:33N 46°03' W 073°07'0 0.0
2016-Sep-21 03:34N 46°03' W 073°07'0 0.0
2016-Sep-21 02:34N 46°03' W 073°07'0 0.0
2016-Sep-20 17:34N 46°03' W 073°07'0 0.0
2016-Sep-20 14:33N 46°03' W 073°07'0 0.0
2016-Sep-20 13:33N 46°03' W 073°07'3 0.8
2016-Sep-20 10:33N 46°02' W 073°10'13 6.3
2016-Sep-20 08:33N 45°50' W 073°17'1 0.7
2016-Sep-20 07:33N 45°51' W 073°17'8 8.1
2016-Sep-20 06:34N 45°58' W 073°12'6 1.5
2016-Sep-20 02:34N 46°03' W 073°07'0 0.0
2016-Sep-19 23:34N 46°03' W 073°07'1 0.2
2016-Sep-19 19:34N 46°03' W 073°08'1 0.8
2016-Sep-19 18:34N 46°03' W 073°07'0 0.0
2016-Sep-19 16:33N 46°03' W 073°07'0 0.0
2016-Sep-19 14:33N 46°03' W 073°07'0 0.0
2016-Sep-19 13:34N 46°03' W 073°07'0 0.0
2016-Sep-19 12:34N 46°03' W 073°07'0 0.0
2016-Sep-19 11:34N 46°03' W 073°07'0 0.0
2016-Sep-19 09:34N 46°03' W 073°07'0 0.0
2016-Sep-19 07:34N 46°03' W 073°07'0 0.0
2016-Sep-19 06:34N 46°03' W 073°07'0 0.0
2016-Sep-19 03:34N 46°03' W 073°07'0 0.0
2016-Sep-19 02:34N 46°03' W 073°07'0 0.0
2016-Sep-19 00:34N 46°03' W 073°07'0 0.0
2016-Sep-18 19:33N 46°03' W 073°07'0 0.0
2016-Sep-18 15:33N 46°03' W 073°07'0 0.0
2016-Sep-18 14:33N 46°03' W 073°07'0 0.0
2016-Sep-18 10:34N 46°03' W 073°07'0 0.2
2016-Sep-18 09:34N 46°03' W 073°07'0 0.0
2016-Sep-18 02:33N 46°03' W 073°07'0 0.0
2016-Sep-18 01:34N 46°03' W 073°07'0 0.0
2016-Sep-17 22:34N 46°03' W 073°07'0 0.0
2016-Sep-17 21:33N 46°03' W 073°07'0 0.0
2016-Sep-17 20:34N 46°03' W 073°07'0 0.0
2016-Sep-17 19:16N 46°03' W 073°07'0 0.0
2016-Sep-17 13:34N 46°03' W 073°07'0 0.0
2016-Sep-17 12:34N 46°03' W 073°07'0 0.0
2016-Sep-17 10:34N 46°03' W 073°07'0 0.0
2016-Sep-17 09:34N 46°03' W 073°07'0 0.0
2016-Sep-17 08:33N 46°03' W 073°07'0 0.0
2016-Sep-17 07:33N 46°03' W 073°07'0 0.0
2016-Sep-17 05:33N 46°03' W 073°07'0 0.0
2016-Sep-17 04:33N 46°03' W 073°07'  

Dump ship's entire track history